Cardigan, United Kingdom
Current Conditions -  °F | °C
As of 1:50 PM on Thursday 23 Oct 2014 (Local Time) from EGOP Reporting Station
Drizzle Drizzle  
Wind Chill: 59°   Ceiling: 800
Heat Index: 59°   Visibility: 6mi
Dew Point: 59°   Wind: 22mph
Humidity: 100%   Direction: 220°SW
Pressure: 30"   Gusts: NA
Location:  52.09°N, 4.66°W
Report Text: EGOP 231250Z 22019KT 9999 -DZ BKN008 SCT022 15/15 Q1016 GRN
Loading
Personal Weather Stations






























Interactive Weather Map New forecast layout! Learn more

10-Day Weather Forecast

Advertisements
Track Severe Weather on mobile